sensor_id;sensor_type;location;lat;lon;timestamp;pressure;altitude;pressure_sealevel;temperature;humidity
5996;BME280;3026;53.612;7.278;2023-04-29T00:00:21;101230.22;;;9.61;100.00
5996;BME280;3026;53.612;7.278;2023-04-29T00:02:48;101228.47;;;9.60;100.00
5996;BME280;3026;53.612;7.278;2023-04-29T00:05:15;101228.47;;;9.60;100.00
5996;BME280;3026;53.612;7.278;2023-04-29T00:07:42;101225.75;;;9.60;100.00
5996;BME280;3026;53.612;7.278;2023-04-29T00:10:10;101240.22;;;9.60;100.00
5996;BME280;3026;53.612;7.278;2023-04-29T00:12:39;101237.66;;;9.59;100.00
5996;BME280;3026;53.612;7.278;2023-04-29T00:15:07;101246.84;;;9.58;100.00
5996;BME280;3026;53.612;7.278;2023-04-29T00:17:34;101244.44;;;9.55;100.00
5996;BME280;3026;53.612;7.278;2023-04-29T00:20:01;101250.25;;;9.60;100.00
5996;BME280;3026;53.612;7.278;2023-04-29T00:22:28;101252.28;;;9.58;100.00
5996;BME280;3026;53.612;7.278;2023-04-29T00:24:55;101246.84;;;9.58;100.00
5996;BME280;3026;53.612;7.278;2023-04-29T00:27:23;101250.56;;;9.57;100.00
5996;BME280;3026;53.612;7.278;2023-04-29T00:29:50;101245.13;;;9.57;100.00
5996;BME280;3026;53.612;7.278;2023-04-29T00:32:16;101241.19;;;9.51;100.00
5996;BME280;3026;53.612;7.278;2023-04-29T00:34:43;101256.03;;;9.57;100.00
5996;BME280;3026;53.612;7.278;2023-04-29T00:37:10;101249.72;;;9.56;100.00
5996;BME280;3026;53.612;7.278;2023-04-29T00:39:37;101252.44;;;9.56;100.00
5996;BME280;3026;53.612;7.278;2023-04-29T00:42:04;101265.88;;;9.58;100.00
5996;BME280;3026;53.612;7.278;2023-04-29T00:44:32;101272.34;;;9.57;100.00
5996;BME280;3026;53.612;7.278;2023-04-29T00:46:59;101261.47;;;9.57;100.00
5996;BME280;3026;53.612;7.278;2023-04-29T00:49:26;101266.91;;;9.57;100.00
5996;BME280;3026;53.612;7.278;2023-04-29T00:51:53;101272.34;;;9.57;100.00
5996;BME280;3026;53.612;7.278;2023-04-29T00:54:22;101268.94;;;9.55;100.00
5996;BME280;3026;53.612;7.278;2023-04-29T00:56:49;101279.81;;;9.55;100.00
5996;BME280;3026;53.612;7.278;2023-04-29T00:59:16;101280.84;;;9.54;100.00
5996;BME280;3026;53.612;7.278;2023-04-29T01:01:45;101278.13;;;9.54;100.00
5996;BME280;3026;53.612;7.278;2023-04-29T01:04:12;101279.13;;;9.53;100.00
5996;BME280;3026;53.612;7.278;2023-04-29T01:06:48;101280.13;;;9.52;100.00
5996;BME280;3026;53.612;7.278;2023-04-29T01:09:28;101277.59;;;9.50;100.00
5996;BME280;3026;53.612;7.278;2023-04-29T01:12:07;101287.63;;;9.50;100.00
5996;BME280;3026;53.612;7.278;2023-04-29T01:14:36;101285.03;;;9.48;100.00
5996;BME280;3026;53.612;7.278;2023-04-29T01:17:10;101284.16;;;9.48;100.00
5996;BME280;3026;53.612;7.278;2023-04-29T01:19:42;101289.59;;;9.48;100.00
5996;BME280;3026;53.612;7.278;2023-04-29T01:22:11;101294.03;;;9.49;100.00
5996;BME280;3026;53.612;7.278;2023-04-29T01:24:40;101300.50;;;9.48;100.00
5996;BME280;3026;53.612;7.278;2023-04-29T01:27:13;101297.78;;;9.48;100.00
5996;BME280;3026;53.612;7.278;2023-04-29T01:29:50;101295.06;;;9.48;100.00
5996;BME280;3026;53.612;7.278;2023-04-29T01:32:26;101299.63;;;9.47;100.00
5996;BME280;3026;53.612;7.278;2023-04-29T01:35:02;101309.69;;;9.47;100.00
5996;BME280;3026;53.612;7.278;2023-04-29T01:37:40;101306.94;;;9.47;100.00
5996;BME280;3026;53.612;7.278;2023-04-29T01:40:17;101309.84;;;9.45;100.00
5996;BME280;3026;53.612;7.278;2023-04-29T01:42:49;101318.00;;;9.45;100.00
5996;BME280;3026;53.612;7.278;2023-04-29T01:45:20;101317.16;;;9.45;100.00
5996;BME280;3026;53.612;7.278;2023-04-29T01:47:51;101315.44;;;9.44;100.00
5996;BME280;3026;53.612;7.278;2023-04-29T01:50:20;101317.47;;;9.42;100.00
5996;BME280;3026;53.612;7.278;2023-04-29T01:52:47;101323.75;;;9.42;100.00
5996;BME280;3026;53.612;7.278;2023-04-29T01:55:15;101321.19;;;9.41;100.00
5996;BME280;3026;53.612;7.278;2023-04-29T01:57:42;101332.09;;;9.41;100.00
5996;BME280;3026;53.612;7.278;2023-04-29T02:00:10;101333.78;;;9.42;100.00
5996;BME280;3026;53.612;7.278;2023-04-29T02:02:37;101342.97;;;9.41;100.00
5996;BME280;3026;53.612;7.278;2023-04-29T02:05:04;101342.13;;;9.40;100.00
5996;BME280;3026;53.612;7.278;2023-04-29T02:07:31;101352.16;;;9.40;100.00
5996;BME280;3026;53.612;7.278;2023-04-29T02:09:58;101346.69;;;9.40;100.00
5996;BME280;3026;53.612;7.278;2023-04-29T02:12:26;101353.00;;;9.40;100.00
5996;BME280;3026;53.612;7.278;2023-04-29T02:14:53;101351.28;;;9.39;100.00
5996;BME280;3026;53.612;7.278;2023-04-29T02:17:20;101352.16;;;9.40;100.00
5996;BME280;3026;53.612;7.278;2023-04-29T02:19:46;101362.31;;;9.38;100.00
5996;BME280;3026;53.612;7.278;2023-04-29T02:22:13;101370.47;;;9.38;100.00
5996;BME280;3026;53.612;7.278;2023-04-29T02:24:40;101378.63;;;9.38;100.00
5996;BME280;3026;53.612;7.278;2023-04-29T02:27:06;101380.50;;;9.37;100.00
5996;BME280;3026;53.612;7.278;2023-04-29T02:29:35;101378.94;;;9.34;100.00
5996;BME280;3026;53.612;7.278;2023-04-29T02:32:02;101384.53;;;9.33;100.00
5996;BME280;3026;53.612;7.278;2023-04-29T02:34:29;101401.03;;;9.31;100.00
5996;BME280;3026;53.612;7.278;2023-04-29T02:36:56;101394.88;;;9.29;100.00
5996;BME280;3026;53.612;7.278;2023-04-29T02:39:23;101408.34;;;9.31;100.00
5996;BME280;3026;53.612;7.278;2023-04-29T02:41:53;101400.63;;;9.26;100.00
5996;BME280;3026;53.612;7.278;2023-04-29T02:44:20;101405.06;;;9.27;100.00
5996;BME280;3026;53.612;7.278;2023-04-29T02:46:48;101412.22;;;9.28;100.00
5996;BME280;3026;53.612;7.278;2023-04-29T02:49:15;101407.78;;;9.27;100.00
5996;BME280;3026;53.612;7.278;2023-04-29T02:51:42;101408.66;;;9.28;100.00
5996;BME280;3026;53.612;7.278;2023-04-29T02:54:09;101408.81;;;9.26;100.00
5996;BME280;3026;53.612;7.278;2023-04-29T02:56:35;101418.69;;;9.27;100.00
5996;BME280;3026;53.612;7.278;2023-04-29T02:59:02;101406.09;;;9.26;100.00
5996;BME280;3026;53.612;7.278;2023-04-29T03:01:29;101402.63;;;9.24;100.00
5996;BME280;3026;53.612;7.278;2023-04-29T03:03:58;101410.50;;;9.27;100.00
5996;BME280;3026;53.612;7.278;2023-04-29T03:06:25;101411.81;;;9.23;100.00
5996;BME280;3026;53.612;7.278;2023-04-29T03:08:52;101408.38;;;9.21;100.00
5996;BME280;3026;53.612;7.278;2023-04-29T03:11:19;101408.38;;;9.21;100.00
5996;BME280;3026;53.612;7.278;2023-04-29T03:13:48;101409.22;;;9.22;100.00
5996;BME280;3026;53.612;7.278;2023-04-29T03:16:15;101415.53;;;9.22;100.00
5996;BME280;3026;53.612;7.278;2023-04-29T03:18:42;101424.69;;;9.21;100.00
5996;BME280;3026;53.612;7.278;2023-04-29T03:21:10;101425.56;;;9.22;100.00
5996;BME280;3026;53.612;7.278;2023-04-29T03:23:37;101432.72;;;9.23;100.00
5996;BME280;3026;53.612;7.278;2023-04-29T03:26:05;101433.72;;;9.22;100.00
5996;BME280;3026;53.612;7.278;2023-04-29T03:28:32;101437.28;;;9.22;100.00
5996;BME280;3026;53.612;7.278;2023-04-29T03:30:58;101437.59;;;9.19;100.00
5996;BME280;3026;53.612;7.278;2023-04-29T03:33:26;101443.03;;;9.19;100.00
5996;BME280;3026;53.612;7.278;2023-04-29T03:35:53;101443.03;;;9.19;100.00
5996;BME280;3026;53.612;7.278;2023-04-29T03:38:21;101449.50;;;9.18;100.00
5996;BME280;3026;53.612;7.278;2023-04-29T03:40:50;101451.38;;;9.18;100.00
5996;BME280;3026;53.612;7.278;2023-04-29T03:43:17;101445.06;;;9.17;100.00
5996;BME280;3026;53.612;7.278;2023-04-29T03:45:44;101457.66;;;9.18;100.00
5996;BME280;3026;53.612;7.278;2023-04-29T03:48:10;101455.94;;;9.17;100.00
5996;BME280;3026;53.612;7.278;2023-04-29T03:50:38;101456.66;;;9.19;100.00
5996;BME280;3026;53.612;7.278;2023-04-29T03:53:05;101460.38;;;9.18;100.00
5996;BME280;3026;53.612;7.278;2023-04-29T03:55:34;101462.25;;;9.18;100.00
5996;BME280;3026;53.612;7.278;2023-04-29T03:58:00;101472.28;;;9.17;100.00
5996;BME280;3026;53.612;7.278;2023-04-29T04:00:28;101478.56;;;9.18;100.00
5996;BME280;3026;53.612;7.278;2023-04-29T04:02:56;101490.31;;;9.18;100.00
5996;BME280;3026;53.612;7.278;2023-04-29T04:05:23;101491.31;;;9.17;100.00
5996;BME280;3026;53.612;7.278;2023-04-29T04:07:50;101493.03;;;9.18;100.00
5996;BME280;3026;53.612;7.278;2023-04-29T04:10:17;101494.03;;;9.17;100.00
5996;BME280;3026;53.612;7.278;2023-04-29T04:12:45;101494.31;;;9.14;100.00
5996;BME280;3026;53.612;7.278;2023-04-29T04:15:13;101503.91;;;9.18;100.00
5996;BME280;3026;53.612;7.278;2023-04-29T04:17:41;101512.09;;;9.18;100.00
5996;BME280;3026;53.612;7.278;2023-04-29T04:20:09;101506.94;;;9.15;100.00
5996;BME280;3026;53.612;7.278;2023-04-29T04:22:36;101510.38;;;9.17;100.00
5996;BME280;3026;53.612;7.278;2023-04-29T04:25:03;101517.53;;;9.18;100.00
5996;BME280;3026;53.612;7.278;2023-04-29T04:27:30;101521.25;;;9.17;100.00
5996;BME280;3026;53.612;7.278;2023-04-29T04:29:58;101518.09;;;9.12;100.00
5996;BME280;3026;53.612;7.278;2023-04-29T04:32:25;101536.72;;;9.17;100.00
5996;BME280;3026;53.612;7.278;2023-04-29T04:34:52;101534.16;;;9.15;100.00
5996;BME280;3026;53.612;7.278;2023-04-29T04:37:19;101535.00;;;9.16;100.00
5996;BME280;3026;53.612;7.278;2023-04-29T04:39:46;101546.75;;;9.16;100.00
5996;BME280;3026;53.612;7.278;2023-04-29T04:42:13;101546.75;;;9.16;100.00
5996;BME280;3026;53.612;7.278;2023-04-29T04:44:40;101556.78;;;9.16;100.00
5996;BME280;3026;53.612;7.278;2023-04-29T04:47:08;101553.03;;;9.17;100.00
5996;BME280;3026;53.612;7.278;2023-04-29T04:49:36;101557.63;;;9.16;100.00
5996;BME280;3026;53.612;7.278;2023-04-29T04:52:03;101564.78;;;9.17;100.00
5996;BME280;3026;53.612;7.278;2023-04-29T04:54:30;101563.06;;;9.16;100.00
5996;BME280;3026;53.612;7.278;2023-04-29T04:56:57;101563.06;;;9.16;100.00
5996;BME280;3026;53.612;7.278;2023-04-29T04:59:24;101570.50;;;9.14;100.00
5996;BME280;3026;53.612;7.278;2023-04-29T05:01:51;101572.25;;;9.15;100.00
5996;BME280;3026;53.612;7.278;2023-04-29T05:04:19;101580.41;;;9.15;100.00
5996;BME280;3026;53.612;7.278;2023-04-29T05:06:45;101581.38;;;9.14;100.00
5996;BME280;3026;53.612;7.278;2023-04-29T05:09:12;101575.94;;;9.14;100.00
5996;BME280;3026;53.612;7.278;2023-04-29T05:11:40;101575.94;;;9.14;100.00
5996;BME280;3026;53.612;7.278;2023-04-29T05:14:06;101574.97;;;9.15;100.00
5996;BME280;3026;53.612;7.278;2023-04-29T05:16:33;101575.66;;;9.17;100.00
5996;BME280;3026;53.612;7.278;2023-04-29T05:19:00;101573.97;;;9.16;100.00
5996;BME280;3026;53.612;7.278;2023-04-29T05:21:28;101576.69;;;9.16;100.00
5996;BME280;3026;53.612;7.278;2023-04-29T05:23:55;101592.00;;;9.17;100.00
5996;BME280;3026;53.612;7.278;2023-04-29T05:26:22;101599.44;;;9.15;100.00
5996;BME280;3026;53.612;7.278;2023-04-29T05:28:49;101604.91;;;9.15;100.00
5996;BME280;3026;53.612;7.278;2023-04-29T05:31:16;101602.16;;;9.15;100.00
5996;BME280;3026;53.612;7.278;2023-04-29T05:33:42;101597.44;;;9.17;100.00
5996;BME280;3026;53.612;7.278;2023-04-29T05:36:09;101589.13;;;9.19;100.00
5996;BME280;3026;53.612;7.278;2023-04-29T05:38:37;101603.59;;;9.19;100.00
5996;BME280;3026;53.612;7.278;2023-04-29T05:41:04;101599.84;;;9.20;100.00
5996;BME280;3026;53.612;7.278;2023-04-29T05:43:31;101609.75;;;9.21;100.00
5996;BME280;3026;53.612;7.278;2023-04-29T05:45:58;101613.16;;;9.23;100.00
5996;BME280;3026;53.612;7.278;2023-04-29T05:48:25;101613.16;;;9.23;100.00
5996;BME280;3026;53.612;7.278;2023-04-29T05:50:52;101616.59;;;9.25;100.00
5996;BME280;3026;53.612;7.278;2023-04-29T05:53:19;101626.22;;;9.29;100.00
5996;BME280;3026;53.612;7.278;2023-04-29T05:55:47;101626.91;;;9.31;100.00
5996;BME280;3026;53.612;7.278;2023-04-29T05:58:15;101628.63;;;9.32;100.00
5996;BME280;3026;53.612;7.278;2023-04-29T06:00:42;101633.78;;;9.35;100.00
5996;BME280;3026;53.612;7.278;2023-04-29T06:03:09;101631.50;;;9.41;100.00
5996;BME280;3026;53.612;7.278;2023-04-29T06:05:36;101631.19;;;9.44;100.00
5996;BME280;3026;53.612;7.278;2023-04-29T06:08:03;101637.03;;;9.49;100.00
5996;BME280;3026;53.612;7.278;2023-04-29T06:10:30;101650.09;;;9.55;100.00
5996;BME280;3026;53.612;7.278;2023-04-29T06:12:59;101646.34;;;9.56;100.00
5996;BME280;3026;53.612;7.278;2023-04-29T06:15:26;101654.06;;;9.60;100.00
5996;BME280;3026;53.612;7.278;2023-04-29T06:17:52;101663.84;;;9.63;100.00
5996;BME280;3026;53.612;7.278;2023-04-29T06:20:20;101654.66;;;9.64;100.00
5996;BME280;3026;53.612;7.278;2023-04-29T06:22:46;101666.97;;;9.68;100.00
5996;BME280;3026;53.612;7.278;2023-04-29T06:25:14;101670.69;;;9.67;100.00
5996;BME280;3026;53.612;7.278;2023-04-29T06:27:40;101666.97;;;9.68;100.00
5996;BME280;3026;53.612;7.278;2023-04-29T06:30:09;101670.13;;;9.73;100.00
5996;BME280;3026;53.612;7.278;2023-04-29T06:32:37;101679.28;;;9.72;100.00
5996;BME280;3026;53.612;7.278;2023-04-29T06:35:04;101672.84;;;9.73;100.00
5996;BME280;3026;53.612;7.278;2023-04-29T06:37:31;101672.69;;;9.75;100.00
5996;BME280;3026;53.612;7.278;2023-04-29T06:39:58;101681.44;;;9.78;100.00
5996;BME280;3026;53.612;7.278;2023-04-29T06:42:25;101696.47;;;9.82;100.00
5996;BME280;3026;53.612;7.278;2023-04-29T06:44:52;101690.44;;;9.88;100.00
5996;BME280;3026;53.612;7.278;2023-04-29T06:47:21;101695.28;;;9.94;100.00
5996;BME280;3026;53.612;7.278;2023-04-29T06:49:47;101695.00;;;9.98;100.00
5996;BME280;3026;53.612;7.278;2023-04-29T06:52:14;101707.31;;;10.02;100.00
5996;BME280;3026;53.612;7.278;2023-04-29T06:54:41;101706.72;;;10.08;100.00
5996;BME280;3026;53.612;7.278;2023-04-29T06:57:08;101704.41;;;10.13;100.00
5996;BME280;3026;53.612;7.278;2023-04-29T06:59:35;101705.53;;;10.20;100.00
5996;BME280;3026;53.612;7.278;2023-04-29T07:02:02;101717.59;;;10.27;100.00
5996;BME280;3026;53.612;7.278;2023-04-29T07:04:30;101717.53;;;10.37;100.00
5996;BME280;3026;53.612;7.278;2023-04-29T07:06:57;101728.97;;;10.50;100.00
5996;BME280;3026;53.612;7.278;2023-04-29T07:09:24;101728.53;;;10.55;100.00
5996;BME280;3026;53.612;7.278;2023-04-29T07:11:52;101731.50;;;10.61;100.00
5996;BME280;3026;53.612;7.278;2023-04-29T07:14:19;101734.06;;;10.63;100.00
5996;BME280;3026;53.612;7.278;2023-04-29T07:16:52;101739.94;;;10.68;100.00
5996;BME280;3026;53.612;7.278;2023-04-29T07:19:19;101733.00;;;10.73;100.00
5996;BME280;3026;53.612;7.278;2023-04-29T07:21:47;101737.41;;;10.84;100.00
5996;BME280;3026;53.612;7.278;2023-04-29T07:24:14;101740.56;;;10.89;100.00
5996;BME280;3026;53.612;7.278;2023-04-29T07:26:42;101746.22;;;10.96;100.00
5996;BME280;3026;53.612;7.278;2023-04-29T07:29:09;101749.28;;;11.10;100.00
5996;BME280;3026;53.612;7.278;2023-04-29T07:31:36;101749.38;;;11.19;100.00
5996;BME280;3026;53.612;7.278;2023-04-29T07:34:03;101755.31;;;11.32;100.00
5996;BME280;3026;53.612;7.278;2023-04-29T07:36:30;101754.03;;;11.36;100.00
5996;BME280;3026;53.612;7.278;2023-04-29T07:38:58;101757.13;;;11.41;100.00
5996;BME280;3026;53.612;7.278;2023-04-29T07:41:25;101766.47;;;11.56;100.00
5996;BME280;3026;53.612;7.278;2023-04-29T07:43:52;101771.47;;;11.79;100.00
5996;BME280;3026;53.612;7.278;2023-04-29T07:46:19;101768.72;;;11.79;100.00
5996;BME280;3026;53.612;7.278;2023-04-29T07:48:48;101773.22;;;11.80;100.00
5996;BME280;3026;53.612;7.278;2023-04-29T07:51:15;101786.00;;;11.97;100.00
5996;BME280;3026;53.612;7.278;2023-04-29T07:53:42;101782.34;;;12.14;100.00
5996;BME280;3026;53.612;7.278;2023-04-29T07:56:10;101790.00;;;12.29;100.00
5996;BME280;3026;53.612;7.278;2023-04-29T07:58:37;101801.38;;;12.42;100.00
5996;BME280;3026;53.612;7.278;2023-04-29T08:01:05;101797.28;;;12.46;100.00
5996;BME280;3026;53.612;7.278;2023-04-29T08:03:32;101786.34;;;12.46;100.00
5996;BME280;3026;53.612;7.278;2023-04-29T08:06:00;101793.25;;;12.58;100.00
5996;BME280;3026;53.612;7.278;2023-04-29T08:08:28;101795.00;;;12.67;100.00
5996;BME280;3026;53.612;7.278;2023-04-29T08:10:55;101796.78;;;12.84;100.00
5996;BME280;3026;53.612;7.278;2023-04-29T08:13:23;101803.66;;;12.89;100.00
5996;BME280;3026;53.612;7.278;2023-04-29T08:15:50;101802.81;;;12.88;100.00
5996;BME280;3026;53.612;7.278;2023-04-29T08:18:18;101807.81;;;13.01;100.00
5996;BME280;3026;53.612;7.278;2023-04-29T08:20:46;101793.09;;;13.02;100.00
5996;BME280;3026;53.612;7.278;2023-04-29T08:23:13;101794.81;;;13.03;100.00
5996;BME280;3026;53.612;7.278;2023-04-29T08:25:44;101801.31;;;13.02;100.00
5996;BME280;3026;53.612;7.278;2023-04-29T08:28:11;101804.28;;;13.08;100.00
5996;BME280;3026;53.612;7.278;2023-04-29T08:30:42;101810.59;;;13.17;100.00
5996;BME280;3026;53.612;7.278;2023-04-29T08:35:57;101828.19;;;13.49;100.00
5996;BME280;3026;53.612;7.278;2023-04-29T08:38:26;101824.13;;;13.61;100.00
5996;BME280;3026;53.612;7.278;2023-04-29T08:40:53;101828.75;;;13.68;100.00
5996;BME280;3026;53.612;7.278;2023-04-29T08:43:21;101833.75;;;14.06;100.00
5996;BME280;3026;53.612;7.278;2023-04-29T08:45:50;101825.34;;;14.15;100.00
5996;BME280;3026;53.612;7.278;2023-04-29T08:48:18;101829.81;;;14.24;100.00
5996;BME280;3026;53.612;7.278;2023-04-29T08:50:45;101828.25;;;14.30;100.00
5996;BME280;3026;53.612;7.278;2023-04-29T08:53:13;101842.50;;;14.25;100.00
5996;BME280;3026;53.612;7.278;2023-04-29T08:55:41;101845.41;;;14.16;100.00
5996;BME280;3026;53.612;7.278;2023-04-29T08:58:09;101852.25;;;14.12;100.00
5996;BME280;3026;53.612;7.278;2023-04-29T09:00:36;101850.03;;;14.23;100.00
5996;BME280;3026;53.612;7.278;2023-04-29T09:03:12;101856.00;;;14.35;100.00
5996;BME280;3026;53.612;7.278;2023-04-29T09:05:40;101861.19;;;14.46;100.00
5996;BME280;3026;53.612;7.278;2023-04-29T09:08:10;101850.88;;;14.56;100.00
5996;BME280;3026;53.612;7.278;2023-04-29T09:10:38;101855.38;;;14.49;100.00
5996;BME280;3026;53.612;7.278;2023-04-29T09:13:07;101863.25;;;14.52;100.00
5996;BME280;3026;53.612;7.278;2023-04-29T09:15:35;101865.25;;;14.83;100.00
5996;BME280;3026;53.612;7.278;2023-04-29T09:18:06;101878.28;;;14.81;100.00
5996;BME280;3026;53.612;7.278;2023-04-29T09:20:33;101882.09;;;14.72;100.00
5996;BME280;3026;53.612;7.278;2023-04-29T09:23:01;101884.88;;;14.47;100.00
5996;BME280;3026;53.612;7.278;2023-04-29T09:25:29;101889.97;;;14.42;100.00
5996;BME280;3026;53.612;7.278;2023-04-29T09:27:56;101895.50;;;14.50;100.00
5996;BME280;3026;53.612;7.278;2023-04-29T09:30:23;101896.50;;;14.66;100.00
5996;BME280;3026;53.612;7.278;2023-04-29T09:33:07;101900.09;;;14.82;100.00
5996;BME280;3026;53.612;7.278;2023-04-29T09:35:34;101904.03;;;14.80;100.00
5996;BME280;3026;53.612;7.278;2023-04-29T09:38:11;101910.22;;;14.82;100.00
5996;BME280;3026;53.612;7.278;2023-04-29T09:40:40;101909.50;;;14.88;100.00
5996;BME280;3026;53.612;7.278;2023-04-29T09:43:12;101905.72;;;14.89;100.00
5996;BME280;3026;53.612;7.278;2023-04-29T09:45:40;101907.44;;;14.90;100.00
5996;BME280;3026;53.612;7.278;2023-04-29T09:48:10;101915.84;;;14.88;100.00
5996;BME280;3026;53.612;7.278;2023-04-29T09:50:38;101917.44;;;14.83;100.00
5996;BME280;3026;53.612;7.278;2023-04-29T09:53:06;101917.06;;;14.78;100.00
5996;BME280;3026;53.612;7.278;2023-04-29T09:55:33;101919.81;;;14.78;100.00
5996;BME280;3026;53.612;7.278;2023-04-29T09:58:00;101934.22;;;14.96;100.00
5996;BME280;3026;53.612;7.278;2023-04-29T10:00:30;101924.94;;;15.05;100.00
5996;BME280;3026;53.612;7.278;2023-04-29T10:02:58;101925.59;;;15.07;100.00
5996;BME280;3026;53.612;7.278;2023-04-29T10:05:28;101924.88;;;15.13;100.00
5996;BME280;3026;53.612;7.278;2023-04-29T10:07:57;101921.72;;;15.41;100.00
5996;BME280;3026;53.612;7.278;2023-04-29T10:10:26;101920.69;;;15.42;100.00
5996;BME280;3026;53.612;7.278;2023-04-29T10:12:54;101920.31;;;15.45;100.00
5996;BME280;3026;53.612;7.278;2023-04-29T10:15:27;101925.72;;;15.69;100.00
5996;BME280;3026;53.612;7.278;2023-04-29T10:17:58;101926.34;;;15.80;100.00
5996;BME280;3026;53.612;7.278;2023-04-29T10:20:30;101919.16;;;15.79;100.00
5996;BME280;3026;53.612;7.278;2023-04-29T10:22:57;101924.28;;;15.82;100.00
5996;BME280;3026;53.612;7.278;2023-04-29T10:25:24;101919.56;;;15.59;100.00
5996;BME280;3026;53.612;7.278;2023-04-29T10:27:54;101919.16;;;15.31;100.00
5996;BME280;3026;53.612;7.278;2023-04-29T10:30:21;101926.28;;;15.17;100.00
5996;BME280;3026;53.612;7.278;2023-04-29T10:32:49;101924.97;;;15.36;100.00
5996;BME280;3026;53.612;7.278;2023-04-29T10:35:18;101930.34;;;15.30;100.00
5996;BME280;3026;53.612;7.278;2023-04-29T10:37:48;101922.28;;;15.28;100.00
5996;BME280;3026;53.612;7.278;2023-04-29T10:40:17;101918.81;;;15.34;100.00
5996;BME280;3026;53.612;7.278;2023-04-29T10:42:48;101931.00;;;15.40;100.00
5996;BME280;3026;53.612;7.278;2023-04-29T10:45:19;101933.94;;;15.78;100.00
5996;BME280;3026;53.612;7.278;2023-04-29T10:48:14;101930.16;;;15.79;100.00
5996;BME280;3026;53.612;7.278;2023-04-29T10:51:00;101936.41;;;15.64;100.00
5996;BME280;3026;53.612;7.278;2023-04-29T10:53:29;101935.09;;;15.44;100.00
5996;BME280;3026;53.612;7.278;2023-04-29T10:55:58;101932.91;;;15.31;100.00
5996;BME280;3026;53.612;7.278;2023-04-29T10:58:40;101949.59;;;15.22;100.00
5996;BME280;3026;53.612;7.278;2023-04-29T11:01:10;101940.56;;;14.97;100.00
5996;BME280;3026;53.612;7.278;2023-04-29T11:03:48;101938.13;;;15.02;100.00
5996;BME280;3026;53.612;7.278;2023-04-29T11:06:15;101933.69;;;15.48;100.00
5996;BME280;3026;53.612;7.278;2023-04-29T11:08:43;101938.44;;;15.70;100.00
5996;BME280;3026;53.612;7.278;2023-04-29T11:11:12;101929.41;;;15.85;100.00
5996;BME280;3026;53.612;7.278;2023-04-29T11:13:40;101930.97;;;15.87;100.00
5996;BME280;3026;53.612;7.278;2023-04-29T11:16:11;101928.22;;;15.87;100.00
5996;BME280;3026;53.612;7.278;2023-04-29T11:19:05;101942.34;;;16.07;100.00
5996;BME280;3026;53.612;7.278;2023-04-29T11:21:33;101937.41;;;16.02;100.00
5996;BME280;3026;53.612;7.278;2023-04-29T11:24:02;101948.59;;;16.01;100.00
5996;BME280;3026;53.612;7.278;2023-04-29T11:26:31;101947.72;;;16.00;100.00
5996;BME280;3026;53.612;7.278;2023-04-29T11:28:57;101948.50;;;16.09;100.00
5996;BME280;3026;53.612;7.278;2023-04-29T11:31:25;101949.75;;;16.29;100.00
5996;BME280;3026;53.612;7.278;2023-04-29T11:33:54;101944.63;;;16.26;100.00
5996;BME280;3026;53.612;7.278;2023-04-29T11:36:21;101934.94;;;16.53;100.00
5996;BME280;3026;53.612;7.278;2023-04-29T11:38:48;101937.06;;;16.66;100.00
5996;BME280;3026;53.612;7.278;2023-04-29T11:41:16;101942.53;;;16.74;100.00
5996;BME280;3026;53.612;7.278;2023-04-29T11:43:45;101952.13;;;16.78;100.00
5996;BME280;3026;53.612;7.278;2023-04-29T11:46:13;101937.88;;;16.52;95.54
5996;BME280;3026;53.612;7.278;2023-04-29T11:48:45;101955.19;;;16.60;96.31
5996;BME280;3026;53.612;7.278;2023-04-29T11:51:13;101953.75;;;16.64;94.14
5996;BME280;3026;53.612;7.278;2023-04-29T11:53:40;101959.91;;;16.52;92.48
5996;BME280;3026;53.612;7.278;2023-04-29T11:56:08;101963.59;;;16.67;93.21
5996;BME280;3026;53.612;7.278;2023-04-29T11:58:37;101975.50;;;16.59;92.18
5996;BME280;3026;53.612;7.278;2023-04-29T12:01:04;101969.25;;;16.43;92.77
5996;BME280;3026;53.612;7.278;2023-04-29T12:03:31;101980.34;;;16.34;94.03
5996;BME280;3026;53.612;7.278;2023-04-29T12:06:00;101981.69;;;16.39;95.21
5996;BME280;3026;53.612;7.278;2023-04-29T12:08:29;101985.63;;;16.44;96.36
5996;BME280;3026;53.612;7.278;2023-04-29T12:10:58;101980.47;;;16.41;96.98
5996;BME280;3026;53.612;7.278;2023-04-29T12:13:27;101984.81;;;16.36;96.91
5996;BME280;3026;53.612;7.278;2023-04-29T12:15:56;101985.09;;;16.41;97.27
5996;BME280;3026;53.612;7.278;2023-04-29T12:18:24;101982.34;;;16.41;97.70
5996;BME280;3026;53.612;7.278;2023-04-29T12:20:52;101983.03;;;16.43;98.14
5996;BME280;3026;53.612;7.278;2023-04-29T12:23:21;101989.91;;;16.47;98.24
5996;BME280;3026;53.612;7.278;2023-04-29T12:25:49;101983.88;;;16.43;97.64
5996;BME280;3026;53.612;7.278;2023-04-29T12:28:18;101980.47;;;16.41;97.72
5996;BME280;3026;53.612;7.278;2023-04-29T12:30:45;101989.50;;;16.27;98.31
5996;BME280;3026;53.612;7.278;2023-04-29T12:33:17;101989.03;;;16.23;99.13
5996;BME280;3026;53.612;7.278;2023-04-29T12:35:46;101986.69;;;16.12;99.71
5996;BME280;3026;53.612;7.278;2023-04-29T12:38:15;101993.28;;;16.03;100.00
5996;BME280;3026;53.612;7.278;2023-04-29T12:40:43;102001.94;;;15.92;100.00
5996;BME280;3026;53.612;7.278;2023-04-29T12:43:10;102002.28;;;15.89;100.00
5996;BME280;3026;53.612;7.278;2023-04-29T12:45:38;102003.38;;;15.80;100.00
5996;BME280;3026;53.612;7.278;2023-04-29T12:48:05;102005.09;;;15.72;100.00
5996;BME280;3026;53.612;7.278;2023-04-29T12:50:34;102006.13;;;15.71;100.00
5996;BME280;3026;53.612;7.278;2023-04-29T12:53:02;101998.50;;;15.90;100.00
5996;BME280;3026;53.612;7.278;2023-04-29T12:55:31;102004.56;;;16.08;100.00
5996;BME280;3026;53.612;7.278;2023-04-29T12:57:59;102003.88;;;16.14;100.00
5996;BME280;3026;53.612;7.278;2023-04-29T13:00:26;102009.56;;;16.13;100.00
5996;BME280;3026;53.612;7.278;2023-04-29T13:02:53;102005.13;;;16.03;100.00
5996;BME280;3026;53.612;7.278;2023-04-29T13:05:19;101999.41;;;16.13;100.00
5996;BME280;3026;53.612;7.278;2023-04-29T13:07:48;102013.06;;;16.29;100.00
5996;BME280;3026;53.612;7.278;2023-04-29T13:10:15;102010.31;;;16.29;100.00
5996;BME280;3026;53.612;7.278;2023-04-29T13:12:42;102023.75;;;16.24;100.00
5996;BME280;3026;53.612;7.278;2023-04-29T13:15:09;102016.31;;;16.02;100.00